Nearby METAR Reports

 

KHFD - Hartford/Brainar, Connecticut, USA
Distance from station: ESE 5mi, 8km
Updated: Thu, 16-Aug-2018 10:53pm EDT
Clear
Clear
 Wind from calm
Wind: Calm
Temperature: 75°F , 24°C
Dew Point: 72°F , 22°C
Humidity: 89%
Barometer: 30.06 inHg , 1017.9 hPa
Clouds: Clear
Visibility: 8 miles , 13 km
2018/08/17 02:53 KHFD 170253Z 00000KT 8SM CLR 24/22 A3006 RMK AO2 SLP177 T02440222 51010
KBDL - Windsor Locks, Connecticut, USA
Distance from station: NNE 12mi, 20km
Updated: Thu, 16-Aug-2018 10:51pm EDT
Clear
Clear
 Wind from SW
Wind: SW 3 mph , 6 km/h
Temperature: 77°F , 25°C
Dew Point: 72°F , 22°C
Humidity: 83%
Barometer: 30.06 inHg , 1017.9 hPa
Clouds: Clear
Visibility: 10 miles , 16 km
2018/08/17 02:51 KBDL 170251Z 22003KT 10SM CLR 25/22 A3006 RMK AO2 SLP178 T02500217 50009
 
KMMK - Meriden, Connecticut, USA
Distance from station: SSW 18mi, 28km
Updated: Thu, 16-Aug-2018 10:53pm EDT
Clear
Clear
 Wind from calm
Wind: Calm
Temperature: 72°F , 22°C
Dew Point: 70°F , 21°C
Humidity: 94%
Barometer: 30.07 inHg , 1018.3 hPa
Clouds: Clear
Visibility: 8 miles , 13 km
2018/08/17 02:53 KMMK 170253Z AUTO 00000KT 8SM CLR 22/21 A3007 RMK AO2 SLP180 T02220211 51010
KBAF - Westfield, Massachusetts, USA
Distance from station: N 28mi, 45km
Updated: Thu, 16-Aug-2018 10:53pm EDT
Clear
Clear
 Wind from calm
Wind: Calm
Temperature: 72°F , 22°C
Dew Point: 72°F , 22°C
Humidity: 100%
Barometer: 30.07 inHg , 1018.3 hPa
Clouds: Clear
Visibility: 9 miles , 14 km
2018/08/17 02:53 KBAF 170253Z AUTO 00000KT 9SM CLR 22/22 A3007 RMK AO2 SLP178 T02220217 51010
 
KIJD - Willimantic, Connecticut, USA
Distance from station: E 29mi, 46km
Updated: Thu, 16-Aug-2018 10:52pm EDT
Clear
Clear
 Wind from NE
Wind: NE 3 mph , 6 km/h
Temperature: 73°F , 23°C
Dew Point: 73°F , 23°C
Humidity: 100%
Barometer: 30.08 inHg , 1018.6 hPa
Clouds: Clear
Visibility: 8 miles , 13 km
2018/08/17 02:52 KIJD 170252Z AUTO 05003KT 8SM CLR 23/23 A3008 RMK AO2 SLP183 T02330228 51012
KOXC - Oxford/Waterbury, Connecticut, USA
Distance from station: SW 29mi, 46km
Updated: Thu, 16-Aug-2018 10:51pm EDT
Clear
Clear
 Wind from calm
Wind: Calm
Temperature: 73°F , 23°C
Dew Point: 70°F , 21°C
Humidity: 89%
Barometer: 30.11 inHg , 1019.6 hPa
Clouds: Clear
Visibility: 10 miles , 16 km
2018/08/17 02:51 KOXC 170251Z AUTO 00000KT 10SM CLR 23/21 A3011 RMK AO2 SLP201 T02280211 51008
 
KSNC - Chester, Connecticut, USA
Distance from station: SSE 29mi, 47km
Updated: Thu, 16-Aug-2018 10:55pm EDT
Clear
Clear
 Wind from WSW
Wind: WSW 5 mph , 7 km/h
Temperature: 77°F , 25°C
Dew Point: 72°F , 22°C
Humidity: 83%
Barometer: 30.09 inHg , 1019 hPa
Clouds: Clear
Visibility: 10 miles , 16 km
2018/08/17 02:55 KSNC 170255Z AUTO 24004KT 10SM CLR 25/22 A3009 RMK AO2
KCEF - Chicopee/Westove, Massachusetts, USA
Distance from station: NNE 32mi, 52km
Updated: Thu, 16-Aug-2018 10:56pm EDT
Clear
Clear
 Wind from calm
Wind: Calm
Temperature: 70°F , 21°C
Dew Point: 68°F , 20°C
Humidity: 94%
Barometer: 30.06 inHg , 1017.9 hPa
Clouds: Clear
Visibility: 10 miles , 16 km
2018/08/17 02:56 KCEF 170256Z 00000KT 10SM CLR 21/20 A3006 RMK AO2A SLP184 T02110201 51011
 
KHVN - New Haven/Tweed, Connecticut, USA
Distance from station: S 35mi, 56km
Updated: Thu, 16-Aug-2018 10:53pm EDT
Clear
Clear
 Wind from calm
Wind: Calm
Temperature: 75°F , 24°C
Dew Point: 72°F , 22°C
Humidity: 89%
Barometer: 30.07 inHg , 1018.3 hPa
Clouds: Clear
Visibility: 9 miles , 14 km
2018/08/17 02:53 KHVN 170253Z AUTO 00000KT 9SM CLR 24/22 A3007 RMK AO2 SLP182 T02440222 50008
KBDR - Bridgeport, Connecticut, USA
Distance from station: SSW 46mi, 74km
Updated: Thu, 16-Aug-2018 10:52pm EDT
Clear
Clear
 Wind from calm
Wind: Calm
Temperature: 79°F , 26°C
Dew Point: 73°F , 23°C
Humidity: 84%
Barometer: 30.06 inHg , 1017.9 hPa
Clouds: Clear
Visibility: 9 miles , 14 km
2018/08/17 02:52 KBDR 170252Z AUTO 00000KT 9SM CLR 26/23 A3006 RMK AO2 SLP180 T02610228 51008
 
KGON - Groton/New Londo, Connecticut, USA
Distance from station: SE 46mi, 75km
Updated: Thu, 16-Aug-2018 10:56pm EDT
Clear
Clear
 Wind from W
Wind: W 5 mph , 7 km/h
Temperature: 77°F , 25°C
Dew Point: 70°F , 21°C
Humidity: 79%
Barometer: 30.06 inHg , 1017.9 hPa
Clouds: Clear
Visibility: 8 miles , 13 km
2018/08/17 02:56 KGON 170256Z AUTO 27004KT 8SM CLR 25/21 A3006 RMK AO2 SLP179 T02500206 51010
KDXR - Danbury, Connecticut, USA
Distance from station: SW 47mi, 76km
Updated: Thu, 16-Aug-2018 10:53pm EDT
Clear
Clear
 Wind from calm
Wind: Calm
Temperature: 72°F , 22°C
Dew Point: 70°F , 21°C
Humidity: 94%
Barometer: 30.10 inHg , 1019.3 hPa
Clouds: Clear
Visibility: 7 miles , 11 km
2018/08/17 02:53 KDXR 170253Z AUTO 00000KT 7SM CLR 22/21 A3010 RMK AO2 SLP187 T02220211 50008
 
KPSF - Pittsfield, Massachusetts, USA
Distance from station: NNW 54mi, 87km
Updated: Thu, 16-Aug-2018 10:54pm EDT
Mist, Clear
Mist, Clear
 Wind from calm
Wind: Calm
Temperature: 70°F , 21°C
Dew Point: 66°F , 19°C
Humidity: 88%
Barometer: 30.11 inHg , 1019.6 hPa
Summary: Mist
Clouds: Clear
Visibility: 6 miles , 10 km
2018/08/17 02:54 KPSF 170254Z AUTO 00000KT 6SM BR CLR 21/19 A3011 RMK AO2 SLP167 T02110189 51010
KWST - Westerly, Rhode Island, USA
Distance from station: ESE 56mi, 91km
Updated: Thu, 16-Aug-2018 10:53pm EDT
Clear
Clear
 Wind from calm
Wind: Calm
Temperature: 75°F , 24°C
Dew Point: 73°F , 23°C
Humidity: 94%
Barometer: 30.07 inHg , 1018.3 hPa
Clouds: Clear
Visibility: 7 miles , 11 km
2018/08/17 02:53 KWST 170253Z AUTO 00000KT 7SM CLR 24/23 A3007 RMK AO2 SLP183 T02440228 50009
 
KORH - Worcester, Massachusetts, USA
Distance from station: NE 57mi, 92km
Updated: Thu, 16-Aug-2018 10:54pm EDT
Overcast
Overcast
 Wind from W
Wind: W 7 mph , 11 km/h
Temperature: 73°F , 23°C
Dew Point: 68°F , 20°C
Humidity: 83%
Barometer: 30.10 inHg , 1019.3 hPa
Clouds: Overcast
Visibility: 10 miles , 16 km
Cloud details: Overcast 7500 ft
2018/08/17 02:54 KORH 170254Z 27006KT 10SM OVC075 23/20 A3010 RMK AO2 SLP188 T02330200 51012
KPOU - Poughkeepsie, New York, USA
Distance from station: W 60mi, 96km
Updated: Thu, 16-Aug-2018 10:53pm EDT
Clear
Clear
 Wind from calm
Wind: Calm
Temperature: 73°F , 23°C
Dew Point: 70°F , 21°C
Humidity: 89%
Barometer: 30.06 inHg , 1017.9 hPa
Clouds: Clear
Visibility: 8 miles , 13 km
2018/08/17 02:53 KPOU 170253Z AUTO 00000KT 8SM CLR 23/21 A3006 RMK AO2 SLP174 T02330211 50009
 
KORE - Orange, Massachusetts, USA
Distance from station: NNE 60mi, 97km
Updated: Thu, 16-Aug-2018 10:52pm EDT
Clear
Clear
 Wind from calm
Wind: Calm
Temperature: 73°F , 23°C
Dew Point: 70°F , 21°C
Humidity: 89%
Barometer: 30.09 inHg , 1019 hPa
Clouds: Clear
Visibility: 7 miles , 11 km
2018/08/17 02:52 KORE 170252Z AUTO 00000KT 7SM CLR 23/21 A3009 RMK AO2 SLP187 T02280211 51014
KHTO - East Hampton, New York, USA
Distance from station: SSE 62mi, 99km
Updated: Thu, 16-Aug-2018 10:55pm EDT
Clear
Clear
 Wind from WSW
Wind: WSW 6 mph , 9 km/h
Temperature: 75°F , 24°C
Dew Point: 72°F , 22°C
Humidity: 89%
Barometer: 30.07 inHg , 1018.3 hPa
Clouds: Clear
Visibility: 10 miles , 16 km
2018/08/17 02:55 KHTO 170255Z AUTO 24005KT 10SM CLR 24/22 A3007 RMK AO2 T02420216
 
KFOK - Westhampton Beac, New York, USA
Distance from station: S 63mi, 102km
Updated: Thu, 16-Aug-2018 10:53pm EDT
Clear
Clear
 Wind from SW
Wind: SW 5 mph , 7 km/h
Temperature: 75°F , 24°C
Dew Point: 70°F , 21°C
Humidity: 83%
Barometer: 30.10 inHg , 1019.3 hPa
Clouds: Clear
Visibility: 9 miles , 14 km
2018/08/17 02:53 KFOK 170253Z 22004KT 9SM CLR 24/21 A3010 RMK AO2 SLP191 T02440211 51008
KMTP - Montauk, New York, USA
Distance from station: SE 64mi, 104km
Updated: Thu, 16-Aug-2018 10:54pm EDT

 Wind from varies
Wind: varies 3 mph , 6 km/h
Temperature: 79°F , 26°C
Dew Point: 72°F , 22°C
Humidity: 79%
Barometer: 30.08 inHg , 1018.6 hPa
2018/08/17 02:54 KMTP 170254Z AUTO VRB03KT 26/22 A3008 RMK AO1 SLP186 T02560217 51009